createdAt,value
2023-05-24T00:00:43.764Z,16.29
2023-05-24T00:03:10.943Z,16.04
2023-05-24T00:05:37.896Z,16.18
2023-05-24T00:08:07.154Z,16.00
2023-05-24T00:10:33.843Z,16.01
2023-05-24T00:13:00.756Z,15.92
2023-05-24T00:15:27.454Z,15.87
2023-05-24T00:17:54.273Z,15.97
2023-05-24T00:20:21.223Z,15.81
2023-05-24T00:22:48.224Z,15.86
2023-05-24T00:25:14.936Z,15.80
2023-05-24T00:27:41.665Z,15.93
2023-05-24T00:30:08.521Z,15.70
2023-05-24T00:32:42.663Z,15.71
2023-05-24T00:35:09.661Z,15.86
2023-05-24T00:37:37.425Z,15.72
2023-05-24T00:40:04.956Z,15.57
2023-05-24T00:42:31.985Z,15.63
2023-05-24T00:44:58.696Z,15.60
2023-05-24T00:47:25.506Z,15.52
2023-05-24T00:49:52.357Z,15.39
2023-05-24T00:52:19.206Z,15.43
2023-05-24T00:54:46.287Z,15.58
2023-05-24T00:57:16.078Z,15.42
2023-05-24T00:59:42.855Z,15.48
2023-05-24T01:02:09.659Z,15.43
2023-05-24T01:04:37.848Z,15.51
2023-05-24T01:07:23.487Z,15.31
2023-05-24T01:10:07.461Z,15.36
2023-05-24T01:12:53.773Z,15.34
2023-05-24T01:15:42.919Z,15.20
2023-05-24T01:18:30.164Z,15.14
2023-05-24T01:21:38.721Z,15.01
2023-05-24T01:24:49.224Z,15.00
2023-05-24T01:27:17.863Z,15.11
2023-05-24T01:29:44.746Z,15.04
2023-05-24T01:32:12.338Z,15.17
2023-05-24T01:34:39.718Z,15.13
2023-05-24T01:37:06.429Z,15.06
2023-05-24T01:39:33.299Z,15.04
2023-05-24T01:42:11.116Z,14.97
2023-05-24T01:44:44.770Z,15.07
2023-05-24T01:47:28.504Z,15.01
2023-05-24T01:50:02.552Z,14.88
2023-05-24T01:52:34.991Z,14.85
2023-05-24T01:55:05.035Z,14.63
2023-05-24T01:57:35.366Z,14.70
2023-05-24T02:00:03.816Z,14.70
2023-05-24T02:02:40.603Z,14.68
2023-05-24T02:05:08.055Z,14.68
2023-05-24T02:07:35.107Z,14.62
2023-05-24T02:10:02.367Z,14.75
2023-05-24T02:12:35.529Z,14.72
2023-05-24T02:15:06.113Z,14.76
2023-05-24T02:17:35.721Z,14.65
2023-05-24T02:20:04.077Z,14.66
2023-05-24T02:22:34.320Z,14.80
2023-05-24T02:25:01.381Z,14.56
2023-05-24T02:27:31.609Z,14.41
2023-05-24T02:29:58.322Z,14.56
2023-05-24T02:32:25.005Z,14.61
2023-05-24T02:34:51.853Z,14.47
2023-05-24T02:37:18.622Z,14.53
2023-05-24T02:39:45.407Z,14.42
2023-05-24T02:42:12.087Z,14.46
2023-05-24T02:44:38.796Z,14.41
2023-05-24T02:47:05.817Z,14.36
2023-05-24T02:49:32.623Z,14.41
2023-05-24T02:51:59.677Z,14.39
2023-05-24T02:54:26.476Z,13.93
2023-05-24T02:56:53.442Z,14.20
2023-05-24T02:59:20.119Z,14.08
2023-05-24T03:01:48.341Z,14.13
2023-05-24T03:04:15.352Z,14.22
2023-05-24T03:06:42.907Z,14.16
2023-05-24T03:09:09.667Z,14.00
2023-05-24T03:11:36.416Z,14.04
2023-05-24T03:14:03.180Z,14.10
2023-05-24T03:16:29.873Z,14.22
2023-05-24T03:18:56.681Z,14.27
2023-05-24T03:21:23.795Z,14.16
2023-05-24T03:23:50.770Z,14.25
2023-05-24T03:26:21.817Z,14.07
2023-05-24T03:28:50.499Z,14.14
2023-05-24T03:31:20.974Z,14.17
2023-05-24T03:33:48.465Z,13.89
2023-05-24T03:36:15.798Z,13.95
2023-05-24T03:38:42.518Z,13.90
2023-05-24T03:41:09.325Z,13.95
2023-05-24T03:43:36.130Z,13.77
2023-05-24T03:46:07.406Z,13.82
2023-05-24T03:48:34.114Z,13.92
2023-05-24T03:51:01.121Z,13.99
2023-05-24T03:53:27.932Z,13.95
2023-05-24T03:55:55.272Z,13.95
2023-05-24T03:58:22.572Z,13.96
2023-05-24T04:00:50.834Z,13.72
2023-05-24T04:03:20.110Z,13.79
2023-05-24T04:05:47.501Z,13.79
2023-05-24T04:08:15.004Z,14.00
2023-05-24T04:10:42.407Z,13.83
2023-05-24T04:13:11.521Z,13.86
2023-05-24T04:15:38.320Z,13.77
2023-05-24T04:18:05.668Z,13.79
2023-05-24T04:20:34.987Z,13.75
2023-05-24T04:23:01.816Z,13.77
2023-05-24T04:25:29.550Z,13.83
2023-05-24T04:27:57.057Z,13.82
2023-05-24T04:30:26.075Z,13.78
2023-05-24T04:32:53.814Z,13.75
2023-05-24T04:35:21.254Z,13.68
2023-05-24T04:37:50.114Z,13.60
2023-05-24T04:40:20.735Z,13.63
2023-05-24T04:42:47.424Z,13.65
2023-05-24T04:45:14.302Z,13.50
2023-05-24T04:47:41.359Z,13.44
2023-05-24T04:50:08.627Z,13.52
2023-05-24T04:52:36.453Z,13.07
2023-05-24T04:55:04.344Z,13.33
2023-05-24T04:57:32.754Z,13.48
2023-05-24T04:59:59.646Z,13.57
2023-05-24T05:02:27.148Z,13.60
2023-05-24T05:04:54.062Z,13.57
2023-05-24T05:07:20.987Z,13.49
2023-05-24T05:09:48.811Z,13.74
2023-05-24T05:12:15.575Z,13.61
2023-05-24T05:14:42.437Z,13.51
2023-05-24T05:17:09.126Z,13.53
2023-05-24T05:19:35.942Z,13.71
2023-05-24T05:22:02.653Z,14.07
2023-05-24T05:24:29.448Z,14.22
2023-05-24T05:26:56.106Z,14.32
2023-05-24T05:29:24.353Z,14.26
2023-05-24T05:31:51.444Z,14.29
2023-05-24T05:34:19.468Z,14.23
2023-05-24T05:36:46.209Z,14.01
2023-05-24T05:39:12.962Z,14.05
2023-05-24T05:41:40.493Z,13.80
2023-05-24T05:44:07.233Z,13.79
2023-05-24T05:46:33.991Z,13.90
2023-05-24T05:49:00.787Z,13.77
2023-05-24T05:51:27.500Z,13.79
2023-05-24T05:53:54.188Z,13.81
2023-05-24T05:56:21.018Z,13.91
2023-05-24T05:58:47.744Z,13.51
2023-05-24T06:01:15.946Z,13.69
2023-05-24T06:03:42.847Z,13.81
2023-05-24T06:06:09.695Z,14.26
2023-05-24T06:08:36.519Z,14.68
2023-05-24T06:11:03.506Z,14.76
2023-05-24T06:13:31.448Z,14.73
2023-05-24T06:15:58.973Z,15.04
2023-05-24T06:18:27.540Z,15.00
2023-05-24T06:20:54.221Z,14.99
2023-05-24T06:23:21.610Z,15.18
2023-05-24T06:25:48.433Z,15.36
2023-05-24T06:28:15.128Z,15.46
2023-05-24T06:30:42.106Z,15.47
2023-05-24T06:33:09.154Z,15.45
2023-05-24T06:35:35.873Z,15.72
2023-05-24T06:38:02.837Z,15.85
2023-05-24T06:40:29.493Z,15.76
2023-05-24T06:42:58.718Z,15.83
2023-05-24T06:45:25.453Z,15.90
2023-05-24T06:47:52.378Z,16.04
2023-05-24T06:50:19.442Z,16.04
2023-05-24T06:52:46.156Z,16.14
2023-05-24T06:55:12.883Z,16.19
2023-05-24T06:57:40.022Z,16.14
2023-05-24T07:00:12.151Z,16.13
2023-05-24T07:02:39.323Z,16.30
2023-05-24T07:05:12.178Z,16.39
2023-05-24T07:07:40.316Z,16.49
2023-05-24T07:10:08.224Z,16.40
2023-05-24T07:12:35.107Z,16.57
2023-05-24T07:15:01.859Z,16.65
2023-05-24T07:17:32.927Z,16.54
2023-05-24T07:20:01.578Z,16.41
2023-05-24T07:22:32.224Z,16.45
2023-05-24T07:24:58.909Z,16.69
2023-05-24T07:27:25.654Z,16.66
2023-05-24T07:29:52.333Z,16.76
2023-05-24T07:32:19.101Z,16.79
2023-05-24T07:34:45.843Z,16.76
2023-05-24T07:37:12.532Z,16.87
2023-05-24T07:39:39.251Z,16.91
2023-05-24T07:42:06.378Z,16.85
2023-05-24T07:44:33.430Z,17.04
2023-05-24T07:47:01.113Z,16.74
2023-05-24T07:49:28.597Z,16.99
2023-05-24T07:51:58.252Z,16.91
2023-05-24T07:54:25.457Z,17.13
2023-05-24T07:56:52.769Z,17.12
2023-05-24T07:59:19.529Z,17.23
2023-05-24T08:01:47.696Z,17.45
2023-05-24T08:04:14.446Z,17.35
2023-05-24T08:06:41.617Z,16.95
2023-05-24T08:09:09.423Z,16.86
2023-05-24T08:11:36.221Z,17.24
2023-05-24T08:14:03.596Z,17.37
2023-05-24T08:16:31.623Z,17.60
2023-05-24T08:18:58.435Z,17.54
2023-05-24T08:21:25.145Z,17.58
2023-05-24T08:23:51.908Z,17.51
2023-05-24T08:26:20.785Z,17.72
2023-05-24T08:28:48.499Z,17.52
2023-05-24T08:31:15.233Z,17.63
2023-05-24T08:33:42.966Z,17.72
2023-05-24T08:36:10.111Z,17.67
2023-05-24T08:38:36.829Z,17.50
2023-05-24T08:41:07.071Z,17.64
2023-05-24T08:43:34.744Z,17.72
2023-05-24T08:46:04.069Z,17.57
2023-05-24T08:48:31.580Z,17.79
2023-05-24T08:50:58.644Z,17.62
2023-05-24T08:53:26.924Z,17.63
2023-05-24T08:55:55.746Z,17.55
2023-05-24T08:58:22.596Z,17.49
2023-05-24T09:00:49.377Z,17.47
2023-05-24T09:03:17.908Z,17.64
2023-05-24T09:05:45.639Z,17.15
2023-05-24T09:08:17.843Z,17.53
2023-05-24T09:10:54.806Z,17.57
2023-05-24T09:13:23.155Z,17.20
2023-05-24T09:15:50.126Z,17.46
2023-05-24T09:18:17.092Z,17.61
2023-05-24T09:20:44.067Z,17.75
2023-05-24T09:23:12.781Z,17.89
2023-05-24T09:25:47.934Z,17.62
2023-05-24T09:28:17.515Z,17.66
2023-05-24T09:30:46.059Z,17.75
2023-05-24T09:33:13.559Z,17.76
2023-05-24T09:35:46.335Z,17.93
2023-05-24T09:38:18.733Z,17.60
2023-05-24T09:40:45.855Z,17.82
2023-05-24T09:43:12.908Z,18.14
2023-05-24T09:45:49.228Z,17.71
2023-05-24T09:48:20.480Z,17.81
2023-05-24T09:51:02.840Z,18.12
2023-05-24T09:53:30.192Z,18.08
2023-05-24T09:55:56.922Z,18.05
2023-05-24T09:58:30.952Z,17.98
2023-05-24T10:01:06.695Z,18.02
2023-05-24T10:03:34.961Z,17.55
2023-05-24T10:06:04.889Z,17.03
2023-05-24T10:08:33.508Z,16.95
2023-05-24T10:11:02.716Z,16.57
2023-05-24T10:13:29.622Z,16.94
2023-05-24T10:15:56.425Z,17.23
2023-05-24T10:18:23.123Z,17.13
2023-05-24T10:20:52.323Z,17.36
2023-05-24T10:23:21.674Z,17.43
2023-05-24T10:26:03.679Z,17.48
2023-05-24T10:28:31.514Z,17.42
2023-05-24T10:31:05.782Z,17.51
2023-05-24T10:33:36.039Z,17.47
2023-05-24T10:36:06.621Z,17.10
2023-05-24T10:38:39.614Z,17.28
2023-05-24T10:41:08.211Z,17.47
2023-05-24T10:43:36.496Z,17.60
2023-05-24T10:46:06.988Z,17.47
2023-05-24T10:48:41.137Z,17.64
2023-05-24T10:51:34.126Z,17.63
2023-05-24T10:54:27.297Z,17.50
2023-05-24T10:56:54.286Z,17.52
2023-05-24T10:59:29.646Z,17.56
2023-05-24T11:01:58.191Z,17.67
2023-05-24T11:04:25.833Z,17.64
2023-05-24T11:06:56.981Z,17.67
2023-05-24T11:09:25.055Z,17.51
2023-05-24T11:11:56.132Z,17.48
2023-05-24T11:14:25.109Z,17.52
2023-05-24T11:16:52.110Z,17.65
2023-05-24T11:19:23.622Z,17.76
2023-05-24T11:21:53.539Z,17.92
2023-05-24T11:24:22.028Z,17.82
2023-05-24T11:26:50.176Z,17.45
2023-05-24T11:29:22.362Z,17.31
2023-05-24T11:31:58.127Z,17.58
2023-05-24T11:34:27.220Z,17.35
2023-05-24T11:36:55.349Z,17.38
2023-05-24T11:39:23.709Z,17.25
2023-05-24T11:41:50.618Z,17.39
2023-05-24T11:44:21.438Z,17.25
2023-05-24T11:46:48.258Z,17.11
2023-05-24T11:49:16.480Z,17.35
2023-05-24T11:51:43.739Z,17.50
2023-05-24T11:54:11.712Z,17.44
2023-05-24T11:56:38.708Z,17.32
2023-05-24T11:59:16.305Z,17.43
2023-05-24T12:01:44.011Z,17.35
2023-05-24T12:04:11.922Z,17.31
2023-05-24T12:06:44.488Z,17.40
2023-05-24T12:09:16.620Z,17.37
2023-05-24T12:11:48.187Z,17.35
2023-05-24T12:14:20.360Z,17.30
2023-05-24T12:16:47.216Z,17.43
2023-05-24T12:19:32.325Z,17.33
2023-05-24T12:22:05.678Z,17.26
2023-05-24T12:24:32.752Z,17.54
2023-05-24T12:27:02.091Z,17.51
2023-05-24T12:29:40.326Z,17.68
2023-05-24T12:32:12.638Z,17.77
2023-05-24T12:34:45.005Z,17.64
2023-05-24T12:37:13.447Z,17.74
2023-05-24T12:39:43.043Z,17.66
2023-05-24T12:42:12.620Z,17.78
2023-05-24T12:44:40.030Z,17.84
2023-05-24T12:47:08.859Z,17.68
2023-05-24T12:49:36.663Z,17.89
2023-05-24T12:52:04.381Z,17.95
2023-05-24T12:54:31.881Z,17.99
2023-05-24T12:57:00.421Z,18.10
2023-05-24T12:59:28.445Z,18.13
2023-05-24T13:01:55.919Z,18.26
2023-05-24T13:04:26.086Z,18.41
2023-05-24T13:06:53.117Z,18.44
2023-05-24T13:09:23.050Z,18.57
2023-05-24T13:11:50.160Z,18.45
2023-05-24T13:14:18.336Z,18.45
2023-05-24T13:16:46.015Z,18.45
2023-05-24T13:19:13.115Z,18.43
2023-05-24T13:21:40.230Z,18.52
2023-05-24T13:24:07.570Z,18.73
2023-05-24T13:26:38.683Z,18.51
2023-05-24T13:31:37.953Z,18.67
2023-05-24T13:34:05.618Z,18.82
2023-05-24T13:36:33.007Z,18.75
2023-05-24T13:39:13.886Z,18.98
2023-05-24T13:41:42.161Z,18.97
2023-05-24T13:44:10.044Z,19.11
2023-05-24T13:46:37.887Z,19.29
2023-05-24T13:49:05.232Z,19.39
2023-05-24T13:51:32.936Z,19.43
2023-05-24T13:53:59.960Z,19.52
2023-05-24T13:56:32.494Z,19.52
2023-05-24T13:59:03.821Z,19.64
2023-05-24T14:01:31.940Z,19.86
2023-05-24T14:03:59.980Z,20.16
2023-05-24T14:06:26.681Z,20.53
2023-05-24T14:08:53.639Z,20.87
2023-05-24T14:11:20.412Z,20.91
2023-05-24T14:16:18.490Z,20.41
2023-05-24T14:18:45.982Z,20.19
2023-05-24T14:21:12.796Z,20.17
2023-05-24T14:23:39.616Z,20.24
2023-05-24T14:26:06.714Z,20.10
2023-05-24T14:28:33.474Z,20.15
2023-05-24T14:31:00.349Z,20.38
2023-05-24T14:33:27.182Z,20.75
2023-05-24T14:35:54.411Z,20.83
2023-05-24T14:38:23.210Z,20.38
2023-05-24T14:40:51.262Z,20.26
2023-05-24T14:43:18.226Z,20.29
2023-05-24T14:45:45.315Z,20.79
2023-05-24T14:48:12.698Z,21.04
2023-05-24T14:50:41.126Z,21.82
2023-05-24T14:53:14.030Z,23.02
2023-05-24T14:55:42.696Z,24.10
2023-05-24T14:58:11.917Z,24.82
2023-05-24T15:00:40.041Z,25.10
2023-05-24T15:03:12.324Z,24.59
2023-05-24T15:05:39.840Z,23.16
2023-05-24T15:08:07.782Z,22.09
2023-05-24T15:10:34.601Z,23.05
2023-05-24T15:13:03.771Z,23.30
2023-05-24T15:15:30.555Z,24.08
2023-05-24T15:17:59.524Z,23.07
2023-05-24T15:20:26.622Z,25.09
2023-05-24T15:22:53.598Z,27.45
2023-05-24T15:25:20.778Z,28.91
2023-05-24T15:27:48.990Z,29.58
2023-05-24T15:30:17.361Z,29.90
2023-05-24T15:32:46.082Z,30.13
2023-05-24T15:35:13.049Z,28.83
2023-05-24T15:37:40.403Z,29.34
2023-05-24T15:40:09.506Z,28.79
2023-05-24T15:42:36.517Z,26.66
2023-05-24T15:45:03.601Z,25.17
2023-05-24T15:47:36.375Z,24.80
2023-05-24T15:50:03.969Z,23.76
2023-05-24T15:52:30.925Z,23.08
2023-05-24T15:54:57.674Z,22.59
2023-05-24T15:57:24.443Z,22.23
2023-05-24T16:02:21.147Z,21.79
2023-05-24T16:04:48.541Z,21.49
2023-05-24T16:07:15.297Z,21.58
2023-05-24T16:09:42.017Z,21.78
2023-05-24T16:12:09.996Z,21.73
2023-05-24T16:14:37.980Z,21.40
2023-05-24T16:17:08.013Z,21.27
2023-05-24T16:19:34.872Z,21.05
2023-05-24T16:22:01.919Z,20.94
2023-05-24T16:24:28.802Z,20.93
2023-05-24T16:26:57.191Z,21.00
2023-05-24T16:29:24.557Z,20.98
2023-05-24T16:31:51.946Z,20.84
2023-05-24T16:34:18.854Z,20.53
2023-05-24T16:36:47.136Z,20.29
2023-05-24T16:39:14.244Z,20.19
2023-05-24T16:41:41.405Z,20.35
2023-05-24T16:44:08.271Z,20.20
2023-05-24T16:46:35.042Z,20.01
2023-05-24T16:49:03.433Z,19.86
2023-05-24T16:51:30.293Z,19.84
2023-05-24T16:53:57.276Z,19.81
2023-05-24T16:56:24.168Z,19.87
2023-05-24T16:58:51.181Z,19.94
2023-05-24T17:01:17.971Z,19.90
2023-05-24T17:03:44.941Z,19.96
2023-05-24T17:06:11.862Z,19.56
2023-05-24T17:08:38.787Z,19.64
2023-05-24T17:11:06.482Z,19.32
2023-05-24T17:13:33.547Z,19.60
2023-05-24T17:16:00.950Z,19.38
2023-05-24T17:18:28.178Z,19.60
2023-05-24T17:21:03.393Z,19.48
2023-05-24T17:23:32.198Z,19.42
2023-05-24T17:25:59.524Z,19.23
2023-05-24T17:28:29.871Z,19.34
2023-05-24T17:30:58.052Z,19.23
2023-05-24T17:33:26.861Z,19.15
2023-05-24T17:35:57.090Z,19.02
2023-05-24T17:38:24.984Z,19.18
2023-05-24T17:41:01.738Z,19.08
2023-05-24T17:43:29.508Z,19.11
2023-05-24T17:46:05.871Z,18.77
2023-05-24T17:48:33.971Z,18.85
2023-05-24T17:51:02.100Z,18.84
2023-05-24T17:53:33.553Z,18.80
2023-05-24T17:56:01.144Z,18.77
2023-05-24T17:58:30.684Z,18.70
2023-05-24T18:00:57.585Z,18.49
2023-05-24T18:03:24.343Z,18.60
2023-05-24T18:05:51.315Z,18.47
2023-05-24T18:08:19.107Z,18.35
2023-05-24T18:10:45.888Z,18.49
2023-05-24T18:13:13.120Z,18.43
2023-05-24T18:15:40.388Z,18.31
2023-05-24T18:18:07.467Z,18.20
2023-05-24T18:20:34.244Z,18.24
2023-05-24T18:23:01.066Z,18.28
2023-05-24T18:25:27.834Z,18.18
2023-05-24T18:27:54.692Z,18.10
2023-05-24T18:30:21.538Z,18.02
2023-05-24T18:33:03.551Z,17.92
2023-05-24T18:35:32.409Z,17.89
2023-05-24T18:37:59.570Z,17.84
2023-05-24T18:40:26.601Z,17.80
2023-05-24T18:42:53.524Z,17.86
2023-05-24T18:45:20.373Z,17.82
2023-05-24T18:47:47.508Z,17.89
2023-05-24T18:50:14.581Z,17.88
2023-05-24T18:52:41.343Z,17.83
2023-05-24T18:55:10.797Z,17.84
2023-05-24T18:57:38.435Z,17.73
2023-05-24T19:00:07.232Z,17.65
2023-05-24T19:02:39.554Z,17.77
2023-05-24T19:05:09.777Z,17.61
2023-05-24T19:07:36.874Z,17.64
2023-05-24T19:10:04.545Z,17.50
2023-05-24T19:12:33.068Z,17.56
2023-05-24T19:15:03.075Z,17.60
2023-05-24T19:17:35.036Z,17.66
2023-05-24T19:20:02.649Z,17.76
2023-05-24T19:22:33.747Z,17.77
2023-05-24T19:25:00.963Z,17.52
2023-05-24T19:27:28.350Z,17.60
2023-05-24T19:29:55.238Z,17.55
2023-05-24T19:32:22.355Z,17.51
2023-05-24T19:34:49.332Z,17.56
2023-05-24T19:37:17.317Z,17.62
2023-05-24T19:39:44.553Z,17.54
2023-05-24T19:42:12.226Z,17.46
2023-05-24T19:44:39.109Z,17.46
2023-05-24T19:47:06.182Z,17.50
2023-05-24T19:49:33.128Z,17.56
2023-05-24T19:52:00.212Z,17.51
2023-05-24T19:54:27.064Z,17.25
2023-05-24T19:56:55.954Z,17.37
2023-05-24T19:59:22.658Z,17.40
2023-05-24T20:01:49.666Z,17.43
2023-05-24T20:04:16.593Z,17.50
2023-05-24T20:06:43.710Z,17.57
2023-05-24T20:09:11.662Z,17.47
2023-05-24T20:11:38.657Z,17.46
2023-05-24T20:14:05.590Z,17.50
2023-05-24T20:16:32.842Z,17.57
2023-05-24T20:18:59.838Z,17.38
2023-05-24T20:21:26.828Z,17.38
2023-05-24T20:23:57.750Z,17.44
2023-05-24T20:26:25.657Z,17.39
2023-05-24T20:28:52.422Z,17.36
2023-05-24T20:31:21.568Z,17.43
2023-05-24T20:33:51.387Z,17.43
2023-05-24T20:36:18.550Z,17.27
2023-05-24T20:38:45.421Z,17.55
2023-05-24T20:41:12.232Z,17.36
2023-05-24T20:43:39.084Z,17.29
2023-05-24T20:46:06.120Z,17.18
2023-05-24T20:48:33.022Z,17.30
2023-05-24T20:50:59.927Z,17.35
2023-05-24T20:53:27.088Z,17.29
2023-05-24T20:55:53.816Z,17.36
2023-05-24T20:58:20.653Z,17.10
2023-05-24T21:00:47.446Z,17.30
2023-05-24T21:03:14.482Z,17.24
2023-05-24T21:05:41.558Z,17.12
2023-05-24T21:08:08.524Z,17.22
2023-05-24T21:10:35.488Z,17.03
2023-05-24T21:13:02.256Z,17.21
2023-05-24T21:15:31.177Z,17.06
2023-05-24T21:17:58.457Z,17.03
2023-05-24T21:20:25.597Z,17.08
2023-05-24T21:22:52.304Z,17.01
2023-05-24T21:25:19.036Z,17.01
2023-05-24T21:27:45.773Z,17.03
2023-05-24T21:30:15.064Z,16.93
2023-05-24T21:32:41.773Z,16.99
2023-05-24T21:35:08.677Z,16.87
2023-05-24T21:37:35.410Z,16.85
2023-05-24T21:40:02.155Z,16.87
2023-05-24T21:42:30.700Z,17.03
2023-05-24T21:44:57.417Z,16.74
2023-05-24T21:47:24.541Z,16.86
2023-05-24T21:49:51.949Z,16.75
2023-05-24T21:52:19.585Z,16.58
2023-05-24T21:54:46.281Z,16.52
2023-05-24T21:57:13.065Z,16.64
2023-05-24T21:59:40.242Z,16.66
2023-05-24T22:02:07.077Z,16.58
2023-05-24T22:04:33.978Z,16.68
2023-05-24T22:07:01.079Z,16.67
2023-05-24T22:09:27.853Z,16.55
2023-05-24T22:11:56.395Z,16.54
2023-05-24T22:14:23.098Z,16.49
2023-05-24T22:16:50.763Z,16.53
2023-05-24T22:19:25.316Z,16.35
2023-05-24T22:21:59.655Z,15.93
2023-05-24T22:24:27.030Z,16.01
2023-05-24T22:26:53.791Z,16.02
2023-05-24T22:29:20.570Z,16.01
2023-05-24T22:31:47.296Z,16.27
2023-05-24T22:34:14.198Z,16.07
2023-05-24T22:36:40.977Z,16.12
2023-05-24T22:39:07.906Z,15.98
2023-05-24T22:41:34.688Z,16.01
2023-05-24T22:44:01.484Z,15.99
2023-05-24T22:46:28.441Z,15.83
2023-05-24T22:48:58.078Z,15.65
2023-05-24T22:51:25.032Z,15.51
2023-05-24T22:53:52.721Z,15.44
2023-05-24T22:56:19.690Z,15.61
2023-05-24T22:58:46.480Z,15.36
2023-05-24T23:01:13.378Z,15.58
2023-05-24T23:03:40.489Z,15.47
2023-05-24T23:06:07.620Z,15.36
2023-05-24T23:08:34.496Z,15.27
2023-05-24T23:11:01.517Z,15.22
2023-05-24T23:13:33.760Z,15.07
2023-05-24T23:16:00.669Z,15.23
2023-05-24T23:18:27.811Z,15.11
2023-05-24T23:20:55.897Z,15.10
2023-05-24T23:23:24.772Z,15.24
2023-05-24T23:25:51.762Z,15.09
2023-05-24T23:28:19.187Z,14.94
2023-05-24T23:30:46.184Z,14.96
2023-05-24T23:33:12.951Z,14.88
2023-05-24T23:35:39.976Z,15.00
2023-05-24T23:38:06.826Z,14.99
2023-05-24T23:40:36.517Z,14.81
2023-05-24T23:43:04.066Z,15.01
2023-05-24T23:45:30.852Z,14.94
2023-05-24T23:47:58.537Z,14.92
2023-05-24T23:50:27.219Z,14.87
2023-05-24T23:52:55.064Z,15.00
2023-05-24T23:55:23.613Z,14.74
2023-05-24T23:57:50.667Z,14.82
